Glen Cove, Maine
Current Conditions -  °F | °C
As of 12:35 PM on Wednesday 26 Nov 2014 (Local Time) from KRKD Reporting Station
Overcast Overcast  
Wind Chill: 30°   Ceiling: 2000
Heat Index: 37°   Visibility: 5mi
Dew Point: 32°   Wind: 12mph
Humidity: 81%   Direction: 30°NNE
Pressure: 30.15"   Gusts: NA
Location:  44.13°N, 69.09°W
Report Text: KRKD 261735Z AUTO 03010KT 5SM BKN020 OVC025 03/00 A3015 RMK AO1
Loading
Personal Weather Stations






























Interactive Weather Map New forecast layout! Learn more

10-Day Weather Forecast

Advertisements
Track Severe Weather on mobile